Time;durP1;ratioP1;P1;durP2;ratioP2;P2;SDS_P1;SDS_P2;PMS_P1;PMS_P2;Temp;Humidity;BMP_temperature;BMP_pressure;BME280_temperature;BME280_humidity;BME280_pressure;Samples;Min_cycle;Max_cycle;Signal;HPM_P1;HPM_P2
2023/10/29 00:00:08;;;;;;;14.70;7.40;;;;;;;9.21;100.00;99528.02;105641;1253;69164;-61
2023/10/29 00:02:59;;;;;;;15.10;8.10;;;;;;;9.16;100.00;99526.99;105588;1254;69059;-61
2023/10/29 00:05:27;;;;;;;15.00;8.20;;;;;;;9.11;100.00;99525.16;105597;1252;75541;-61
2023/10/29 00:07:56;;;;;;;12.60;8.10;;;;;;;9.08;100.00;99532.09;105559;1253;81470;-61
2023/10/29 00:10:24;;;;;;;13.90;7.40;;;;;;;9.04;100.00;99537.64;105559;1255;72020;-61
2023/10/29 00:12:52;;;;;;;11.20;7.80;;;;;;;9.02;100.00;99539.33;105550;1253;69088;-61
2023/10/29 00:15:20;;;;;;;14.40;8.70;;;;;;;8.98;100.00;99541.95;105586;1255;69206;-61
2023/10/29 00:17:49;;;;;;;12.60;8.30;;;;;;;8.95;100.00;99541.56;105513;1253;73809;-61
2023/10/29 00:20:18;;;;;;;12.70;8.00;;;;;;;8.92;100.00;99543.44;105570;1256;81764;-62
2023/10/29 00:22:46;;;;;;;14.50;8.10;;;;;;;8.88;100.00;99546.19;105559;1253;71736;-61
2023/10/29 00:25:14;;;;;;;12.70;8.40;;;;;;;8.87;100.00;99548.53;105581;1253;69471;-62
2023/10/29 00:27:42;;;;;;;14.00;8.10;;;;;;;8.86;100.00;99549.09;105599;1256;69212;-61
2023/10/29 00:30:11;;;;;;;12.90;8.40;;;;;;;8.85;100.00;99550.52;105424;1253;73246;-61
2023/10/29 00:32:39;;;;;;;16.70;8.70;;;;;;;8.84;100.00;99551.95;105581;1253;80922;-61
2023/10/29 00:35:08;;;;;;;14.60;7.90;;;;;;;8.83;100.00;99551.33;105556;1254;71307;-61
2023/10/29 00:37:37;;;;;;;13.90;7.90;;;;;;;8.81;100.00;99555.04;105582;1253;69197;-61
2023/10/29 00:40:06;;;;;;;12.10;7.20;;;;;;;8.80;100.00;99557.86;105636;1255;69260;-61
2023/10/29 00:42:34;;;;;;;13.50;7.20;;;;;;;8.79;100.00;99557.94;105654;1253;74180;-61
2023/10/29 00:45:03;;;;;;;11.30;6.80;;;;;;;8.77;100.00;99559.58;105467;1257;82694;-61
2023/10/29 00:47:32;;;;;;;11.80;6.70;;;;;;;8.75;100.00;99558.13;105582;1253;70397;-61
2023/10/29 00:50:01;;;;;;;13.70;6.40;;;;;;;8.71;100.00;99552.16;105599;1254;69209;-61
2023/10/29 00:52:29;;;;;;;10.70;6.70;;;;;;;8.69;100.00;99549.11;105395;1256;69184;-61
2023/10/29 00:54:57;;;;;;;13.10;6.30;;;;;;;8.66;100.00;99545.56;105586;1255;72976;-61
2023/10/29 00:57:26;;;;;;;14.40;7.00;;;;;;;8.66;100.00;99543.48;105608;1255;81907;-60
2023/10/29 00:59:54;;;;;;;12.30;5.80;;;;;;;8.67;100.00;99541.55;105616;1255;72047;-60
2023/10/29 01:02:22;;;;;;;12.80;5.70;;;;;;;8.67;100.00;99541.00;105615;1253;69184;-62
2023/10/29 01:04:51;;;;;;;22.90;7.30;;;;;;;8.69;100.00;99537.80;105492;1253;69190;-62
2023/10/29 01:07:19;;;;;;;10.80;5.20;;;;;;;8.69;100.00;99540.03;105560;1253;73321;-62
2023/10/29 01:09:47;;;;;;;16.20;6.30;;;;;;;8.70;100.00;99542.81;105429;1256;82924;-62
2023/10/29 01:12:16;;;;;;;11.90;5.20;;;;;;;8.69;100.00;99542.49;105536;1253;71453;-62
2023/10/29 01:14:45;;;;;;;12.10;5.80;;;;;;;8.68;100.00;99543.41;105597;1253;69190;-62
2023/10/29 01:17:15;;;;;;;14.40;5.50;;;;;;;8.67;100.00;99537.72;105587;1255;69241;-62
2023/10/29 01:19:43;;;;;;;16.00;6.50;;;;;;;8.64;100.00;99538.54;105557;1253;74200;-62
2023/10/29 01:22:11;;;;;;;11.10;6.20;;;;;;;8.60;100.00;99537.83;105633;1253;80650;-62
2023/10/29 01:24:39;;;;;;;9.70;4.90;;;;;;;8.54;100.00;99536.35;105588;1255;71985;-62
2023/10/29 01:27:09;;;;;;;19.30;8.00;;;;;;;8.48;100.00;99535.55;105617;1254;69115;-62
2023/10/29 01:29:37;;;;;;;21.90;9.10;;;;;;;8.43;100.00;99534.71;105602;1255;69181;-62
2023/10/29 01:32:06;;;;;;;13.50;6.40;;;;;;;8.33;100.00;99538.45;105585;1253;72685;-62
2023/10/29 01:34:34;;;;;;;10.70;5.10;;;;;;;8.24;100.00;99534.96;105627;1253;82747;-61
2023/10/29 01:37:03;;;;;;;11.00;5.60;;;;;;;8.16;100.00;99534.23;105541;1253;71913;-62
2023/10/29 01:39:31;;;;;;;84.10;33.50;;;;;;;8.14;100.00;99531.36;105597;1253;69135;-62
2023/10/29 01:41:59;;;;;;;28.80;12.10;;;;;;;8.12;100.00;99530.96;105570;1256;69175;-62
2023/10/29 01:44:28;;;;;;;20.40;8.70;;;;;;;8.06;100.00;99532.41;105544;1253;74366;-62
2023/10/29 01:46:56;;;;;;;49.50;14.00;;;;;;;8.01;100.00;99525.09;105540;1256;81719;-62
2023/10/29 01:49:24;;;;;;;15.40;6.80;;;;;;;7.98;100.00;99523.34;105541;1255;72963;-62
2023/10/29 01:51:52;;;;;;;42.20;13.50;;;;;;;7.93;100.00;99526.29;105527;1253;69172;-62
2023/10/29 01:54:23;;;;;;;12.40;5.20;;;;;;;7.92;100.00;99528.61;105546;1256;69290;-62
2023/10/29 01:56:52;;;;;;;12.80;5.20;;;;;;;7.89;100.00;99524.39;105529;1253;72973;-62
2023/10/29 01:59:20;;;;;;;12.60;4.90;;;;;;;7.86;100.00;99523.45;105442;1255;82765;-62
2023/10/29 02:01:49;;;;;;;9.40;4.60;;;;;;;7.81;100.00;99521.21;105508;1253;70101;-62
2023/10/29 02:04:17;;;;;;;19.10;6.60;;;;;;;7.79;100.00;99522.88;105593;1254;69122;-62
2023/10/29 02:06:46;;;;;;;7.00;3.90;;;;;;;7.79;100.00;99522.67;105537;1253;69746;-61
2023/10/29 02:09:14;;;;;;;10.20;3.90;;;;;;;7.79;100.00;99517.98;105621;1253;74621;-62
2023/10/29 02:11:42;;;;;;;7.90;4.50;;;;;;;7.80;100.00;99520.05;105513;1256;81708;-62
2023/10/29 02:14:11;;;;;;;12.20;4.30;;;;;;;7.81;100.00;99518.96;105565;1252;71714;-61
2023/10/29 02:16:40;;;;;;;6.40;3.50;;;;;;;7.82;100.00;99519.95;105498;1253;69123;-62
2023/10/29 02:19:09;;;;;;;9.60;4.00;;;;;;;7.82;100.00;99516.84;105596;1255;69185;-62
2023/10/29 02:21:37;;;;;;;18.00;7.60;;;;;;;7.82;100.00;99516.28;105559;1253;72731;-62
2023/10/29 02:24:06;;;;;;;20.30;8.20;;;;;;;7.85;100.00;99516.38;105510;1255;82158;-62
2023/10/29 02:26:34;;;;;;;38.50;13.00;;;;;;;7.86;100.00;99514.77;105639;1255;71090;-62
2023/10/29 02:29:02;;;;;;;23.20;7.80;;;;;;;7.88;100.00;99520.07;105582;1253;69080;-62
2023/10/29 02:31:31;;;;;;;21.80;7.20;;;;;;;7.90;100.00;99521.39;105435;1256;69196;-62
2023/10/29 02:33:59;;;;;;;16.20;6.40;;;;;;;7.91;100.00;99519.43;105561;1253;72502;-61
2023/10/29 02:36:27;;;;;;;21.70;7.20;;;;;;;7.94;100.00;99518.95;105568;1256;81700;-62
2023/10/29 02:38:56;;;;;;;14.50;6.20;;;;;;;7.97;100.00;99521.63;105401;1253;70445;-62
2023/10/29 02:41:24;;;;;;;15.30;6.00;;;;;;;7.99;100.00;99519.45;105606;1255;69170;-62
2023/10/29 02:43:55;;;;;;;12.20;5.00;;;;;;;8.02;100.00;99519.34;105548;1255;69170;-62
2023/10/29 02:46:23;;;;;;;12.50;5.60;;;;;;;8.04;100.00;99517.85;105556;1255;71880;-62
2023/10/29 02:48:51;;;;;;;13.80;6.20;;;;;;;8.07;100.00;99521.91;105515;1252;81354;-62
2023/10/29 02:51:19;;;;;;;10.40;4.50;;;;;;;8.11;100.00;99522.64;105438;1258;71764;-62
2023/10/29 02:53:47;;;;;;;9.40;4.30;;;;;;;8.14;100.00;99525.96;105534;1253;69226;-62
2023/10/29 02:56:16;;;;;;;6.80;3.60;;;;;;;8.19;100.00;99528.56;105500;1256;69109;-62
2023/10/29 02:58:44;;;;;;;7.70;3.80;;;;;;;8.22;100.00;99529.11;105622;1253;73439;-61
2023/10/29 03:01:15;;;;;;;8.60;4.80;;;;;;;8.26;100.00;99528.44;105455;1253;80072;-62
2023/10/29 03:03:47;;;;;;;11.50;4.70;;;;;;;8.26;100.00;99530.33;105576;1253;70447;-62
2023/10/29 03:06:15;;;;;;;9.90;5.20;;;;;;;8.29;100.00;99532.88;105540;1255;69119;-62
2023/10/29 03:08:43;;;;;;;8.30;4.50;;;;;;;8.29;100.00;99531.30;105503;1253;69171;-63
2023/10/29 03:11:12;;;;;;;8.40;4.10;;;;;;;8.29;100.00;99528.35;105579;1253;72779;-62
2023/10/29 03:13:41;;;;;;;10.90;4.60;;;;;;;8.28;100.00;99528.17;105538;1252;81562;-62
2023/10/29 03:16:09;;;;;;;11.50;3.50;;;;;;;8.29;100.00;99529.73;105555;1252;72245;-61
2023/10/29 03:18:37;;;;;;;7.00;3.80;;;;;;;8.27;100.00;99531.17;105549;1253;69178;-62
2023/10/29 03:21:06;;;;;;;7.70;4.00;;;;;;;8.25;100.00;99532.12;105598;1256;69202;-62
2023/10/29 03:23:35;;;;;;;10.10;4.10;;;;;;;8.23;100.00;99530.11;105551;1253;72899;-62
2023/10/29 03:26:03;;;;;;;7.90;3.50;;;;;;;8.21;100.00;99519.45;105564;1253;81445;-62
2023/10/29 03:28:31;;;;;;;9.20;4.10;;;;;;;8.19;100.00;99518.45;105573;1253;72162;-62
2023/10/29 03:31:00;;;;;;;6.20;3.70;;;;;;;8.18;100.00;99514.66;105567;1255;69225;-62
2023/10/29 03:33:28;;;;;;;6.60;4.30;;;;;;;8.17;100.00;99509.66;105493;1255;69188;-63
2023/10/29 03:35:56;;;;;;;5.00;3.10;;;;;;;8.17;100.00;99507.42;105489;1253;72686;-63
2023/10/29 03:38:24;;;;;;;4.60;3.30;;;;;;;8.17;100.00;99509.48;105454;1252;81449;-63
2023/10/29 03:40:53;;;;;;;6.60;3.70;;;;;;;8.17;100.00;99504.78;105457;1253;72029;-63
2023/10/29 03:43:22;;;;;;;7.20;3.80;;;;;;;8.17;100.00;99505.49;105593;1253;69117;-63
2023/10/29 03:45:50;;;;;;;8.40;3.50;;;;;;;8.17;100.00;99510.55;105505;1253;69189;-63
2023/10/29 03:48:18;;;;;;;7.80;3.00;;;;;;;8.14;100.00;99515.02;105507;1253;72753;-63
2023/10/29 03:50:47;;;;;;;8.80;3.60;;;;;;;8.11;100.00;99514.77;105541;1257;81464;-63
2023/10/29 03:53:15;;;;;;;39.00;12.40;;;;;;;8.10;100.00;99511.86;105531;1253;71816;-63
2023/10/29 03:55:43;;;;;;;39.60;12.50;;;;;;;8.09;100.00;99509.84;105551;1254;69183;-63
2023/10/29 03:58:11;;;;;;;15.20;6.70;;;;;;;8.07;100.00;99514.27;105538;1255;69184;-63
2023/10/29 04:00:40;;;;;;;12.90;5.10;;;;;;;8.05;100.00;99513.13;105534;1252;73113;-63
2023/10/29 04:03:08;;;;;;;9.10;4.60;;;;;;;8.03;100.00;99512.48;105613;1255;81398;-63
2023/10/29 04:05:37;;;;;;;11.40;4.40;;;;;;;8.02;100.00;99509.77;105535;1255;73669;-63
2023/10/29 04:08:05;;;;;;;10.90;4.30;;;;;;;8.03;100.00;99506.60;105549;1256;69262;-63
2023/10/29 04:10:34;;;;;;;9.30;3.40;;;;;;;8.04;100.00;99506.71;105435;1253;69104;-63
2023/10/29 04:13:02;;;;;;;9.70;3.40;;;;;;;8.07;100.00;99506.80;105678;1256;71376;-63
2023/10/29 04:15:30;;;;;;;7.50;3.40;;;;;;;8.09;100.00;99504.78;105489;1255;82747;-63
2023/10/29 04:17:59;;;;;;;5.80;2.40;;;;;;;8.11;100.00;99510.95;105570;1253;70316;-63
2023/10/29 04:20:27;;;;;;;4.80;2.60;;;;;;;8.13;100.00;99510.71;105536;1253;69104;-63
2023/10/29 04:22:55;;;;;;;7.10;3.30;;;;;;;8.15;100.00;99508.70;105582;1256;69278;-63
2023/10/29 04:25:23;;;;;;;5.00;3.00;;;;;;;8.17;100.00;99508.82;105531;1253;72939;-63
2023/10/29 04:27:51;;;;;;;6.20;3.00;;;;;;;8.18;100.00;99510.48;105519;1255;82731;-63
2023/10/29 04:30:20;;;;;;;6.50;2.70;;;;;;;8.21;100.00;99511.79;105455;1255;70645;-63
2023/10/29 04:32:48;;;;;;;4.50;2.50;;;;;;;8.24;100.00;99514.60;105503;1253;69115;-63
2023/10/29 04:35:17;;;;;;;8.90;3.20;;;;;;;8.27;100.00;99508.55;105578;1255;69171;-63
2023/10/29 04:37:45;;;;;;;5.70;2.80;;;;;;;8.30;100.00;99501.30;105581;1255;72860;-63
2023/10/29 04:40:13;;;;;;;5.70;2.60;;;;;;;8.34;100.00;99491.73;105627;1255;80697;-63
2023/10/29 04:42:41;;;;;;;9.40;3.40;;;;;;;8.37;100.00;99490.03;105470;1253;72084;-63
2023/10/29 04:45:11;;;;;;;6.80;3.50;;;;;;;8.40;100.00;99491.85;105530;1253;69080;-63
2023/10/29 04:47:39;;;;;;;31.70;14.30;;;;;;;8.43;100.00;99494.34;105551;1255;69216;-63
2023/10/29 04:50:08;;;;;;;37.30;18.90;;;;;;;8.47;100.00;99489.64;105533;1253;73024;-63
2023/10/29 04:52:36;;;;;;;25.00;11.70;;;;;;;8.50;100.00;99487.60;105546;1252;81449;-63
2023/10/29 04:55:05;;;;;;;26.10;8.30;;;;;;;8.54;100.00;99485.70;105505;1252;70982;-63
2023/10/29 04:57:33;;;;;;;16.30;5.60;;;;;;;8.56;100.00;99480.70;105674;1253;69204;-63
2023/10/29 05:00:04;;;;;;;12.50;5.20;;;;;;;8.59;100.00;99481.81;105536;1255;69231;-63
2023/10/29 05:02:32;;;;;;;10.90;4.80;;;;;;;8.62;100.00;99482.92;105520;1255;72117;-63
2023/10/29 05:05:02;;;;;;;14.10;4.90;;;;;;;8.66;100.00;99484.64;105555;1256;82154;-63
2023/10/29 05:07:31;;;;;;;;;;;;;;;8.70;100.00;99485.69;105567;1255;70506;-63
2023/10/29 05:09:59;;;;;;;10.60;4.00;;;;;;;8.73;100.00;99485.20;105515;1256;69121;-63
2023/10/29 05:12:27;;;;;;;9.00;3.50;;;;;;;8.75;100.00;99480.22;105494;1256;69185;-63
2023/10/29 05:14:56;;;;;;;10.60;4.00;;;;;;;8.79;100.00;99471.71;105554;1253;74207;-63
2023/10/29 05:17:24;;;;;;;6.80;3.30;;;;;;;8.82;100.00;99469.64;105572;1253;82772;-63
2023/10/29 05:19:54;;;;;;;5.20;3.20;;;;;;;8.86;100.00;99465.12;105488;1254;71672;-63
2023/10/29 05:22:23;;;;;;;11.10;5.00;;;;;;;8.90;100.00;99461.11;105510;1253;69196;-63
2023/10/29 05:24:51;;;;;;;27.60;13.70;;;;;;;8.93;100.00;99466.02;105533;1255;69176;-63
2023/10/29 05:27:20;;;;;;;9.20;4.50;;;;;;;8.94;100.00;99456.38;105510;1255;74126;-62
2023/10/29 05:29:48;;;;;;;13.50;5.80;;;;;;;8.96;100.00;99455.46;105529;1255;81720;-61
2023/10/29 05:32:16;;;;;;;13.30;5.40;;;;;;;8.96;100.00;99451.80;105462;1253;71641;-62
2023/10/29 05:34:44;;;;;;;13.10;5.30;;;;;;;8.96;100.00;99455.29;105508;1253;69119;-62
2023/10/29 05:37:13;;;;;;;12.00;5.00;;;;;;;8.94;100.00;99453.59;105765;1256;69102;-63
2023/10/29 05:39:41;;;;;;;9.90;4.30;;;;;;;8.94;100.00;99456.19;105523;1253;74859;-62
2023/10/29 05:42:10;;;;;;;11.40;5.40;;;;;;;8.94;100.00;99457.98;105514;1253;81335;-60
2023/10/29 05:44:38;;;;;;;11.70;4.50;;;;;;;8.94;100.00;99458.64;105813;1253;71908;-60
2023/10/29 05:47:06;;;;;;;8.40;4.30;;;;;;;8.93;100.00;99458.18;105484;1255;69116;-61
2023/10/29 05:49:34;;;;;;;8.80;3.70;;;;;;;8.93;100.00;99456.44;105761;1255;69203;-61
2023/10/29 05:52:02;;;;;;;8.60;3.80;;;;;;;8.92;100.00;99460.30;105597;1253;71706;-61
2023/10/29 05:54:30;;;;;;;9.10;4.00;;;;;;;8.92;100.00;99455.61;105499;1256;82788;-61
2023/10/29 05:56:58;;;;;;;7.60;3.30;;;;;;;8.92;100.00;99451.25;105772;1257;71709;-61
2023/10/29 05:59:28;;;;;;;8.80;2.90;;;;;;;8.92;100.00;99448.11;105694;1253;69204;-61
2023/10/29 06:01:56;;;;;;;4.70;2.40;;;;;;;8.92;100.00;99448.27;105634;1253;69142;-61
2023/10/29 06:04:25;;;;;;;8.00;3.20;;;;;;;8.92;100.00;99453.67;105508;1253;72804;-61
2023/10/29 06:06:53;;;;;;;7.00;3.10;;;;;;;8.92;100.00;99452.48;105769;1258;81476;-61
2023/10/29 06:09:21;;;;;;;7.30;2.90;;;;;;;8.92;100.00;99447.06;105577;1255;70935;-60
2023/10/29 06:11:52;;;;;;;10.90;3.40;;;;;;;8.93;100.00;99447.91;105536;1253;69203;-60
2023/10/29 06:14:22;;;;;;;5.80;3.30;;;;;;;8.92;100.00;99453.16;105660;1253;69178;-61
2023/10/29 06:16:57;;;;;;;6.80;2.70;;;;;;;8.92;100.00;99453.86;105589;1253;74552;-61
2023/10/29 06:19:42;;;;;;;9.50;4.30;;;;;;;8.92;100.00;99456.13;105895;1258;81340;-61
2023/10/29 06:22:11;;;;;;;8.30;4.60;;;;;;;8.92;100.00;99453.67;105456;1256;73651;-60
2023/10/29 06:24:39;;;;;;;19.40;9.40;;;;;;;8.95;100.00;99460.17;105497;1254;69176;-61
2023/10/29 06:27:07;;;;;;;60.60;25.70;;;;;;;8.97;100.00;99456.77;105599;1253;69085;-61
2023/10/29 06:29:38;;;;;;;29.10;10.90;;;;;;;9.00;100.00;99456.65;105600;1256;73887;-61
2023/10/29 06:32:07;;;;;;;17.60;6.50;;;;;;;9.04;100.00;99458.40;105554;1255;82433;-61
2023/10/29 06:34:35;;;;;;;12.80;5.30;;;;;;;9.07;100.00;99464.15;105611;1257;71864;-60
2023/10/29 06:37:04;;;;;;;9.70;4.90;;;;;;;9.12;100.00;99465.51;105707;1254;69173;-60
2023/10/29 06:39:32;;;;;;;11.90;4.40;;;;;;;9.17;100.00;99480.23;105769;1256;69277;-61
2023/10/29 06:42:00;;;;;;;10.80;4.00;;;;;;;9.24;100.00;99485.54;105481;1256;73129;-60
2023/10/29 06:44:28;;;;;;;13.50;4.20;;;;;;;9.30;100.00;99491.20;105475;1256;82770;-60
2023/10/29 06:46:56;;;;;;;12.80;4.90;;;;;;;9.38;100.00;99488.38;105448;1255;72177;-60
2023/10/29 06:49:25;;;;;;;10.00;4.10;;;;;;;9.46;100.00;99489.05;105481;1258;69005;-61
2023/10/29 06:51:53;;;;;;;9.80;4.00;;;;;;;9.52;100.00;99487.34;105680;1259;69072;-60
2023/10/29 06:54:22;;;;;;;8.30;3.40;;;;;;;9.58;100.00;99482.71;105661;1253;73580;-60
2023/10/29 06:56:50;;;;;;;5.80;2.70;;;;;;;9.64;100.00;99482.95;105490;1257;82962;-61
2023/10/29 06:59:18;;;;;;;7.30;3.40;;;;;;;9.69;100.00;99479.73;105449;1258;71734;-61
2023/10/29 07:01:47;;;;;;;6.50;3.40;;;;;;;9.74;100.00;99476.91;105627;1255;69148;-60
2023/10/29 07:04:16;;;;;;;12.60;7.20;;;;;;;9.76;100.00;99473.80;105489;1256;69171;-60
2023/10/29 07:06:46;;;;;;;9.30;4.20;;;;;;;9.84;100.00;99477.30;105735;1253;73230;-61
2023/10/29 07:09:15;;;;;;;10.50;4.30;;;;;;;9.91;100.00;99477.83;105579;1253;80287;-61
2023/10/29 07:11:44;;;;;;;9.90;3.30;;;;;;;9.95;100.00;99481.41;105872;1256;73066;-59
2023/10/29 07:14:13;;;;;;;7.30;2.90;;;;;;;9.99;100.00;99478.11;105560;1253;69118;-60
2023/10/29 07:16:44;;;;;;;6.70;2.80;;;;;;;10.03;100.00;99483.30;105812;1257;69185;-60
2023/10/29 07:19:12;;;;;;;;;;;;;;;10.07;100.00;99475.29;105501;1253;71925;-59
2023/10/29 07:21:41;;;;;;;3.80;2.00;;;;;;;10.13;100.00;99470.95;105680;1253;83310;-60
2023/10/29 07:24:09;;;;;;;5.30;2.30;;;;;;;10.20;100.00;99474.96;105515;1253;73107;-60
2023/10/29 07:26:37;;;;;;;4.10;2.00;;;;;;;10.28;100.00;99478.09;105593;1253;69065;-60
2023/10/29 07:29:06;;;;;;;6.00;2.20;;;;;;;10.37;100.00;99478.90;105628;1258;69121;-61
2023/10/29 07:31:34;;;;;;;3.90;2.20;;;;;;;10.45;100.00;99476.54;105493;1253;71627;-62
2023/10/29 07:34:03;;;;;;;7.10;2.20;;;;;;;10.54;100.00;99472.08;105582;1253;84389;-61
2023/10/29 07:36:31;;;;;;;8.60;3.50;;;;;;;10.61;100.00;99469.05;105603;1258;73848;-61
2023/10/29 07:38:59;;;;;;;4.20;2.20;;;;;;;10.66;100.00;99456.95;105610;1254;69141;-61
2023/10/29 07:41:27;;;;;;;6.00;2.20;;;;;;;10.70;100.00;99447.27;105731;1256;69066;-61
2023/10/29 07:43:56;;;;;;;6.60;1.80;;;;;;;10.74;100.00;99442.70;105687;1259;73199;-61
2023/10/29 07:46:24;;;;;;;5.70;2.30;;;;;;;10.78;100.00;99429.39;105491;1255;81669;-61
2023/10/29 07:48:52;;;;;;;3.30;2.00;;;;;;;10.80;100.00;99431.05;105482;1258;71511;-61
2023/10/29 07:51:20;;;;;;;3.60;1.90;;;;;;;10.82;100.00;99440.52;105525;1257;69144;-61
2023/10/29 07:53:49;;;;;;;5.80;2.50;;;;;;;10.87;100.00;99439.03;105829;1256;69140;-61
2023/10/29 07:56:19;;;;;;;5.70;3.40;;;;;;;10.91;100.00;99440.01;106026;1254;72237;-62
2023/10/29 07:58:47;;;;;;;;;;;;;;;10.99;100.00;99443.64;105893;1255;81458;-64
2023/10/29 08:01:17;;;;;;;6.50;2.40;;;;;;;11.07;100.00;99444.98;105854;1253;73057;-62
2023/10/29 08:03:46;;;;;;;6.80;2.90;;;;;;;11.15;100.00;99444.20;105861;1256;69145;-64
2023/10/29 08:06:14;;;;;;;4.50;2.50;;;;;;;11.23;100.00;99438.33;105608;1256;69218;-62
2023/10/29 08:08:42;;;;;;;6.20;2.70;;;;;;;11.30;100.00;99433.20;105667;1253;72995;-60
2023/10/29 08:11:20;;;;;;;4.40;2.10;;;;;;;11.37;100.00;99441.58;105531;1255;82157;-61
2023/10/29 08:13:50;;;;;;;5.60;2.60;;;;;;;11.44;100.00;99442.55;105695;1255;73015;-62
2023/10/29 08:16:18;;;;;;;6.40;3.20;;;;;;;11.53;100.00;99445.77;105600;1254;69131;-65
2023/10/29 08:18:47;;;;;;;5.40;2.10;;;;;;;11.61;100.00;99443.89;105866;1255;69116;-65
2023/10/29 08:21:15;;;;;;;4.50;2.50;;;;;;;11.69;100.00;99443.96;105696;1253;72948;-62
2023/10/29 08:23:44;;;;;;;5.40;2.30;;;;;;;11.77;100.00;99436.85;105640;1255;82879;-63
2023/10/29 08:26:13;;;;;;;6.30;2.20;;;;;;;11.84;100.00;99432.25;105801;1255;71208;-63
2023/10/29 08:28:41;;;;;;;5.00;2.30;;;;;;;11.93;100.00;99432.80;105571;1255;69190;-62
2023/10/29 08:31:10;;;;;;;6.50;2.50;;;;;;;12.01;100.00;99433.23;105554;1255;69130;-62
2023/10/29 08:33:39;;;;;;;15.00;7.60;;;;;;;12.09;100.00;99431.72;105593;1253;74229;-61
2023/10/29 08:36:07;;;;;;;15.10;6.80;;;;;;;12.15;100.00;99431.70;105530;1253;81511;-61
2023/10/29 08:38:36;;;;;;;12.70;5.90;;;;;;;12.20;100.00;99429.67;105528;1256;72795;-61
2023/10/29 08:41:22;;;;;;;7.00;3.10;;;;;;;12.24;100.00;99428.17;105632;1255;69130;-61
2023/10/29 08:43:52;;;;;;;5.10;2.20;;;;;;;12.27;100.00;99429.05;105565;1254;69110;-61
2023/10/29 08:46:20;;;;;;;6.00;2.70;;;;;;;12.33;100.00;99431.34;105696;1253;73009;-61
2023/10/29 08:48:51;;;;;;;4.70;2.20;;;;;;;12.41;100.00;99435.44;105738;1255;81895;-61
2023/10/29 08:51:19;;;;;;;4.10;1.90;;;;;;;12.50;100.00;99436.64;105601;1256;73098;-61
2023/10/29 08:53:47;;;;;;;4.20;1.70;;;;;;;12.59;100.00;99442.58;105581;1254;69136;-61
2023/10/29 08:56:15;;;;;;;4.90;2.00;;;;;;;12.68;100.00;99439.57;105610;1254;69128;-61
2023/10/29 08:58:43;;;;;;;4.10;1.70;;;;;;;12.79;100.00;99431.22;105583;1253;71835;-62
2023/10/29 09:01:12;;;;;;;3.90;1.40;;;;;;;12.89;100.00;99431.42;105530;1253;83282;-62
2023/10/29 09:03:41;;;;;;;7.50;1.60;;;;;;;13.02;100.00;99424.16;105591;1253;71802;-61
2023/10/29 09:06:10;;;;;;;5.00;1.40;;;;;;;13.11;100.00;99423.02;105579;1256;179156;-61
2023/10/29 09:08:40;;;;;;;3.60;1.50;;;;;;;13.19;100.00;99425.50;105723;1255;69046;-62
2023/10/29 09:11:14;;;;;;;3.80;1.40;;;;;;;13.29;100.00;99426.17;105661;1253;73033;-62
2023/10/29 09:13:43;;;;;;;2.90;1.50;;;;;;;13.37;100.00;99429.48;105627;1253;84194;-61
2023/10/29 09:16:11;;;;;;;3.20;1.60;;;;;;;13.48;100.00;99433.56;105560;1258;72394;-61
2023/10/29 09:18:40;;;;;;;3.60;1.60;;;;;;;13.62;100.00;99434.20;105681;1253;69261;-62
2023/10/29 09:21:08;;;;;;;6.40;1.70;;;;;;;13.75;100.00;99432.27;105585;1253;69073;-62
2023/10/29 09:23:36;;;;;;;2.30;1.30;;;;;;;13.87;100.00;99428.73;105543;1257;73055;-62
2023/10/29 09:26:05;;;;;;;3.20;1.80;;;;;;;13.95;100.00;99426.59;105535;1259;82953;-62
2023/10/29 09:28:33;;;;;;;5.40;2.00;;;;;;;14.02;100.00;99430.15;105661;1253;70562;-62
2023/10/29 09:31:03;;;;;;;6.10;2.30;;;;;;;14.09;100.00;99432.52;105728;1257;69174;-62
2023/10/29 09:33:31;;;;;;;;;;;;;;;14.14;100.00;99430.24;105621;1266;69086;-62
2023/10/29 09:36:00;;;;;;;7.80;1.90;;;;;;;14.17;100.00;99427.94;105483;1253;73969;-62
2023/10/29 09:38:28;;;;;;;15.70;7.40;;;;;;;14.20;100.00;99428.24;105758;1256;83209;-62
2023/10/29 09:40:56;;;;;;;17.80;9.50;;;;;;;14.22;100.00;99429.69;105550;1253;72026;-62
2023/10/29 09:43:27;;;;;;;21.70;9.20;;;;;;;14.26;100.00;99425.75;105696;1258;70035;-62
2023/10/29 09:45:56;;;;;;;10.90;4.30;;;;;;;14.32;100.00;99416.02;105607;1256;69151;-62
2023/10/29 09:48:25;;;;;;;7.40;2.80;;;;;;;14.40;100.00;99417.94;105588;1259;74123;-62
2023/10/29 09:50:54;;;;;;;5.70;3.30;;;;;;;14.49;100.00;99410.28;105724;1254;82610;-62
2023/10/29 09:53:23;;;;;;;5.70;2.30;;;;;;;14.64;100.00;99409.13;105532;1258;72347;-62
2023/10/29 09:55:54;;;;;;;3.80;2.10;;;;;;;14.84;100.00;99407.73;105608;1254;69129;-62
2023/10/29 09:58:23;;;;;;;4.50;2.30;;;;;;;15.07;100.00;99400.67;105645;1265;69201;-63
2023/10/29 10:00:53;;;;;;;3.20;1.70;;;;;;;15.29;100.00;99395.39;105719;1257;72361;-62
2023/10/29 10:03:24;;;;;;;9.80;1.70;;;;;;;15.39;99.65;99390.38;105682;1256;81541;-63
2023/10/29 10:05:53;;;;;;;4.30;1.70;;;;;;;15.46;99.13;99390.43;105576;1256;72872;-63
2023/10/29 10:08:26;;;;;;;3.80;1.70;;;;;;;15.54;98.52;99380.34;105547;1253;69157;-62
2023/10/29 10:10:55;;;;;;;5.10;2.30;;;;;;;15.61;98.05;99377.49;105672;1255;69198;-63
2023/10/29 10:13:41;;;;;;;4.30;1.80;;;;;;;15.70;97.49;99375.65;105520;1256;74191;-63
2023/10/29 10:16:12;;;;;;;4.80;1.80;;;;;;;15.81;97.14;99370.95;105523;1256;81372;-62
2023/10/29 10:18:54;;;;;;;4.90;1.50;;;;;;;15.88;96.75;99375.00;105569;1254;71853;-62
2023/10/29 10:21:47;;;;;;;3.10;1.50;;;;;;;15.87;95.97;99378.96;105640;1253;69167;-60
2023/10/29 10:24:16;;;;;;;2.90;1.50;;;;;;;15.89;95.32;99380.95;105540;1256;69215;-60
2023/10/29 10:26:44;;;;;;;4.60;1.60;;;;;;;15.92;95.00;99375.27;108767;1255;72078;-60
2023/10/29 10:29:12;;;;;;;2.40;1.50;;;;;;;16.02;94.53;99365.98;105724;1256;81931;-61
2023/10/29 10:31:41;;;;;;;4.60;1.50;;;;;;;16.10;94.10;99362.05;105848;1254;71923;-61
2023/10/29 10:34:17;;;;;;;4.00;1.60;;;;;;;16.16;93.72;99360.50;105604;1256;69205;-59
2023/10/29 10:36:50;;;;;;;2.20;1.30;;;;;;;16.18;93.24;99359.70;105657;1252;69203;-60
2023/10/29 10:39:22;;;;;;;2.80;1.40;;;;;;;16.19;92.95;99361.39;105604;1257;74820;-62
2023/10/29 10:41:51;;;;;;;7.90;1.70;;;;;;;16.20;92.66;99358.08;105648;1255;82687;-61
2023/10/29 10:44:20;;;;;;;3.60;1.30;;;;;;;16.21;92.10;99358.23;105602;1258;70598;-61
2023/10/29 10:46:54;;;;;;;6.70;1.70;;;;;;;16.21;91.66;99360.34;105720;1253;69051;-61
2023/10/29 10:49:23;;;;;;;4.50;1.40;;;;;;;16.23;91.02;99353.80;105638;1257;69183;-61
2023/10/29 10:51:56;;;;;;;4.10;1.30;;;;;;;16.28;90.79;99355.19;105706;1255;74367;-60
2023/10/29 10:54:25;;;;;;;11.50;5.10;;;;;;;16.39;90.71;99356.33;105806;1256;81910;-61
2023/10/29 10:56:55;;;;;;;10.30;5.10;;;;;;;16.53;90.76;99354.98;105650;1258;73168;-61
2023/10/29 10:59:23;;;;;;;;;;;;;;;16.72;90.58;99356.17;105656;1257;69114;-61
2023/10/29 11:01:52;;;;;;;9.00;2.70;;;;;;;17.07;90.22;99349.90;105547;1258;69205;-61
2023/10/29 11:04:23;;;;;;;5.00;2.00;;;;;;;17.56;89.68;99352.59;105722;1253;72112;-61
2023/10/29 11:06:53;;;;;;;3.80;1.70;;;;;;;17.72;88.99;99349.81;105608;1259;82735;-61
2023/10/29 11:09:22;;;;;;;3.80;2.00;;;;;;;17.65;88.35;99350.13;105647;1255;73019;-62
2023/10/29 11:11:52;;;;;;;;;;;;;;;17.54;88.10;99349.01;105651;1257;69167;-62
2023/10/29 11:14:21;;;;;;;2.50;1.60;;;;;;;17.44;87.81;99346.36;105678;1256;69105;-62
2023/10/29 11:16:54;;;;;;;3.30;1.60;;;;;;;17.40;87.84;99347.58;105788;1253;72556;-62
2023/10/29 11:19:41;;;;;;;2.30;1.30;;;;;;;17.45;87.98;99341.52;105776;1257;82624;-62
2023/10/29 11:22:29;;;;;;;4.20;2.50;;;;;;;17.49;87.78;99340.68;105619;1255;71059;-61
2023/10/29 11:25:09;;;;;;;6.40;3.20;;;;;;;17.49;87.64;99339.92;105644;1256;69138;-62
2023/10/29 11:27:39;;;;;;;4.60;2.00;;;;;;;17.73;87.40;99342.33;105596;1257;69232;-62
2023/10/29 11:30:10;;;;;;;2.10;1.30;;;;;;;18.13;87.18;99334.41;105622;1257;74249;-63